Time;durP1;ratioP1;P1;durP2;ratioP2;P2;SDS_P1;SDS_P2;PMS_P1;PMS_P2;Temp;Humidity;BMP_temperature;BMP_pressure;BME280_temperature;BME280_humidity;BME280_pressure;Samples;Min_cycle;Max_cycle;Signal;HPM_P1;HPM_P2
2022/12/18 00:01:57;;;;;;;;;;;-10.70;99.90;;;;;;5046698;28;19959;-70
2022/12/18 00:04:25;;;;;;;;;;;-10.70;99.90;;;;;;5040908;28;19924;-69
2022/12/18 00:06:53;;;;;;;;;;;-10.60;99.90;;;;;;5045433;28;19949;-69
2022/12/18 00:09:20;;;;;;;;;;;-10.70;99.90;;;;;;5045294;28;19967;-73
2022/12/18 00:11:47;;;;;;;;;;;-10.70;99.90;;;;;;5048174;28;19921;-70
2022/12/18 00:14:14;;;;;;;;;;;-10.00;99.90;;;;;;5048630;28;20429;-71
2022/12/18 00:16:44;;;;;;;;;;;-10.60;99.90;;;;;;5047750;28;19921;-71
2022/12/18 00:19:12;;;;;;;;;;;-10.70;99.90;;;;;;5048668;28;20123;-71
2022/12/18 00:21:39;;;;;;;;;;;-10.70;99.90;;;;;;5039123;28;20303;-70
2022/12/18 00:24:08;;;;;;;;;;;-10.70;99.90;;;;;;5033018;28;19988;-70
2022/12/18 00:26:36;;;;;;;;;;;-10.70;99.90;;;;;;5030111;28;19961;-70
2022/12/18 00:29:05;;;;;;;;;;;-10.70;99.90;;;;;;5038339;28;19929;-72
2022/12/18 00:31:31;;;;;;;;;;;-10.70;99.90;;;;;;5041004;28;19963;-71
2022/12/18 00:33:58;;;;;;;;;;;-10.70;99.90;;;;;;5046152;28;19959;-71
2022/12/18 00:36:26;;;;;;;;;;;-10.70;99.90;;;;;;5035930;28;19984;-70
2022/12/18 00:38:54;;;;;;;;;;;-10.70;99.90;;;;;;5034670;28;20185;-69
2022/12/18 00:44:03;;;;;;;;;;;-10.70;99.90;;;;;;5045020;28;19964;-71
2022/12/18 00:46:30;;;;;;;;;;;-10.70;99.90;;;;;;5046512;28;19985;-70
2022/12/18 00:48:57;;;;;;;;;;;-10.40;99.90;;;;;;5048573;28;20152;-70
2022/12/18 00:51:25;;;;;;;;;;;-10.70;99.90;;;;;;5047754;28;19988;-71
2022/12/18 00:53:52;;;;;;;;;;;-10.70;99.90;;;;;;5047665;28;19928;-72
2022/12/18 00:56:19;;;;;;;;;;;-10.70;99.90;;;;;;5027562;28;19929;-70
2022/12/18 00:58:47;;;;;;;;;;;-10.80;99.90;;;;;;5025305;28;20263;-72
2022/12/18 01:01:14;;;;;;;;;;;-10.80;99.90;;;;;;5025395;28;19997;-71
2022/12/18 01:03:40;;;;;;;;;;;-10.90;99.90;;;;;;5025482;28;19993;-70
2022/12/18 01:06:08;;;;;;;;;;;-10.90;99.90;;;;;;5039156;28;19928;-71
2022/12/18 01:08:35;;;;;;;;;;;-10.90;99.90;;;;;;5045086;28;20208;-72
2022/12/18 01:11:02;;;;;;;;;;;-10.90;99.90;;;;;;5045290;28;19956;-70
2022/12/18 01:13:28;;;;;;;;;;;-11.00;99.90;;;;;;5045327;28;19948;-71
2022/12/18 01:15:57;;;;;;;;;;;-11.00;99.90;;;;;;5047443;28;20189;-73
2022/12/18 01:18:24;;;;;;;;;;;-11.00;99.90;;;;;;5068633;23;19927;-68
2022/12/18 01:20:51;;;;;;;;;;;-10.90;99.90;;;;;;5063097;28;19960;-68
2022/12/18 01:23:17;;;;;;;;;;;-10.90;99.90;;;;;;5047272;28;19921;-68
2022/12/18 01:25:44;;;;;;;;;;;-11.00;99.90;;;;;;5047206;28;20170;-68
2022/12/18 01:28:11;;;;;;;;;;;-10.90;99.90;;;;;;5047067;28;19968;-69
2022/12/18 01:30:38;;;;;;;;;;;-10.90;99.90;;;;;;5047312;28;19928;-68
2022/12/18 01:33:07;;;;;;;;;;;-10.90;99.90;;;;;;5047432;28;19924;-68
2022/12/18 01:35:34;;;;;;;;;;;-10.90;99.90;;;;;;5062763;28;19921;-68
2022/12/18 01:38:01;;;;;;;;;;;-10.80;99.90;;;;;;5067465;28;19920;-69
2022/12/18 01:40:28;;;;;;;;;;;-10.80;99.90;;;;;;5067415;28;19966;-66
2022/12/18 01:42:55;;;;;;;;;;;-10.80;99.90;;;;;;5066669;28;19927;-68
2022/12/18 01:45:27;;;;;;;;;;;-10.80;99.90;;;;;;5066553;28;19981;-69
2022/12/18 01:47:55;;;;;;;;;;;-10.80;99.90;;;;;;5065796;28;19928;-67
2022/12/18 01:50:25;;;;;;;;;;;-10.80;99.90;;;;;;5066809;28;19921;-69
2022/12/18 01:52:54;;;;;;;;;;;-10.70;99.90;;;;;;5066619;28;19959;-70
2022/12/18 01:55:23;;;;;;;;;;;-10.70;99.90;;;;;;5065840;28;19920;-68
2022/12/18 01:57:52;;;;;;;;;;;-10.60;99.90;;;;;;5065367;28;19928;-67
2022/12/18 02:00:20;;;;;;;;;;;-10.60;99.90;;;;;;5065506;28;19936;-69
2022/12/18 02:02:47;;;;;;;;;;;-10.60;99.90;;;;;;5064718;28;19971;-70
2022/12/18 02:05:17;;;;;;;;;;;-10.50;99.90;;;;;;5058137;28;19927;-69
2022/12/18 02:07:51;;;;;;;;;;;-10.40;99.90;;;;;;5064241;28;19984;-69
2022/12/18 02:10:20;;;;;;;;;;;-10.30;99.90;;;;;;5064665;28;19979;-69
2022/12/18 02:12:50;;;;;;;;;;;-10.20;99.90;;;;;;5058135;28;19944;-69
2022/12/18 02:15:20;;;;;;;;;;;-10.10;99.90;;;;;;5064561;28;19996;-68
2022/12/18 02:17:51;;;;;;;;;;;-10.00;99.90;;;;;;5063854;28;20342;-70
2022/12/18 02:20:21;;;;;;;;;;;-10.00;99.90;;;;;;5062692;28;19921;-70
2022/12/18 02:22:58;;;;;;;;;;;-9.90;99.90;;;;;;5055329;28;19928;-70
2022/12/18 02:25:35;;;;;;;;;;;-9.80;99.90;;;;;;5043422;28;20212;-74
2022/12/18 02:28:05;;;;;;;;;;;-9.80;99.90;;;;;;5043910;28;19928;-68
2022/12/18 02:30:32;;;;;;;;;;;-9.70;99.90;;;;;;5057528;28;19963;-69
2022/12/18 02:33:00;;;;;;;;;;;-9.70;99.90;;;;;;5048457;28;19953;-68
2022/12/18 02:35:29;;;;;;;;;;;-9.60;99.90;;;;;;5062299;28;19983;-72
2022/12/18 02:37:56;;;;;;;;;;;-9.60;99.90;;;;;;5063991;28;19925;-68
2022/12/18 02:40:24;;;;;;;;;;;-9.50;99.90;;;;;;5065061;28;19921;-66
2022/12/18 02:42:52;;;;;;;;;;;-9.50;99.90;;;;;;5064665;28;19958;-72
2022/12/18 02:45:20;;;;;;;;;;;-9.40;99.90;;;;;;5064456;28;19943;-67
2022/12/18 02:47:50;;;;;;;;;;;-9.40;99.90;;;;;;5063576;28;19920;-69
2022/12/18 02:50:21;;;;;;;;;;;-9.30;99.90;;;;;;5064720;28;19980;-68
2022/12/18 02:52:55;;;;;;;;;;;-9.30;99.90;;;;;;5064995;28;19944;-68
2022/12/18 02:55:28;;;;;;;;;;;-9.30;99.90;;;;;;5064547;28;19920;-67
2022/12/18 02:57:57;;;;;;;;;;;-9.30;99.90;;;;;;5063380;28;19944;-66
2022/12/18 03:00:30;;;;;;;;;;;-9.30;99.90;;;;;;5064814;28;19928;-69
2022/12/18 03:02:59;;;;;;;;;;;-9.30;99.90;;;;;;5065160;28;19921;-68
2022/12/18 03:05:28;;;;;;;;;;;-9.30;99.90;;;;;;5065360;28;19924;-67
2022/12/18 03:07:58;;;;;;;;;;;-9.30;99.90;;;;;;5064312;28;19921;-70
2022/12/18 03:10:26;;;;;;;;;;;-9.30;99.90;;;;;;5065305;28;19928;-67
2022/12/18 03:12:59;;;;;;;;;;;-9.30;99.90;;;;;;5046739;28;19969;-67
2022/12/18 03:15:29;;;;;;;;;;;-9.20;99.90;;;;;;5047609;28;19921;-70
2022/12/18 03:17:58;;;;;;;;;;;-9.20;99.90;;;;;;5046528;28;19925;-67
2022/12/18 03:20:27;;;;;;;;;;;-9.20;99.90;;;;;;5047121;28;20000;-67
2022/12/18 03:22:59;;;;;;;;;;;-9.10;99.90;;;;;;5043617;28;19925;-67
2022/12/18 03:25:26;;;;;;;;;;;-9.00;99.90;;;;;;5045949;28;19959;-68
2022/12/18 03:27:57;;;;;;;;;;;-9.00;99.90;;;;;;5045283;28;19963;-69
2022/12/18 03:30:24;;;;;;;;;;;-8.90;99.90;;;;;;5047070;28;19951;-67
2022/12/18 03:32:55;;;;;;;;;;;-8.90;99.90;;;;;;5047170;28;19928;-67
2022/12/18 03:35:24;;;;;;;;;;;-8.80;99.90;;;;;;5046982;28;19928;-67
2022/12/18 03:37:51;;;;;;;;;;;-8.80;99.90;;;;;;5046358;28;20156;-67
2022/12/18 03:40:18;;;;;;;;;;;-8.70;99.90;;;;;;5046955;28;19921;-68
2022/12/18 03:42:49;;;;;;;;;;;-8.60;99.90;;;;;;5066158;28;19966;-69
2022/12/18 03:45:20;;;;;;;;;;;-8.60;99.90;;;;;;5066790;28;19928;-67
2022/12/18 03:47:50;;;;;;;;;;;-8.50;99.90;;;;;;5065901;28;19971;-68
2022/12/18 03:50:20;;;;;;;;;;;-8.40;99.90;;;;;;5066624;28;19921;-68
2022/12/18 03:52:50;;;;;;;;;;;-8.40;99.90;;;;;;5065997;28;20155;-68
2022/12/18 03:55:18;;;;;;;;;;;-8.40;99.90;;;;;;5066439;28;19928;-68
2022/12/18 03:57:46;;;;;;;;;;;-8.40;99.90;;;;;;5065531;28;19966;-69
2022/12/18 04:00:14;;;;;;;;;;;-8.40;99.90;;;;;;5066493;28;19959;-68
2022/12/18 04:02:44;;;;;;;;;;;-8.30;99.90;;;;;;5066187;28;20191;-68
2022/12/18 04:05:11;;;;;;;;;;;-8.20;99.90;;;;;;5066012;28;19921;-69
2022/12/18 04:07:42;;;;;;;;;;;-8.20;99.90;;;;;;5063337;28;19963;-69
2022/12/18 04:10:10;;;;;;;;;;;-8.10;99.90;;;;;;5066279;28;19948;-68
2022/12/18 04:12:38;;;;;;;;;;;-8.10;99.90;;;;;;5066105;28;19920;-68
2022/12/18 04:15:05;;;;;;;;;;;-8.00;99.90;;;;;;5066241;28;19920;-67
2022/12/18 04:17:32;;;;;;;;;;;-7.90;99.90;;;;;;5065280;28;19927;-68
2022/12/18 04:19:58;;;;;;;;;;;-7.90;99.90;;;;;;5066094;28;19927;-68
2022/12/18 04:22:39;;;;;;;;;;;-7.80;99.90;;;;;;5064669;28;20236;-68
2022/12/18 04:25:08;;;;;;;;;;;-7.80;99.90;;;;;;5065486;28;19959;-68
2022/12/18 04:27:34;;;;;;;;;;;-7.80;99.90;;;;;;5065340;28;19921;-68
2022/12/18 04:30:01;;;;;;;;;;;-7.80;99.90;;;;;;5065884;28;19987;-68
2022/12/18 04:32:28;;;;;;;;;;;-7.80;99.90;;;;;;5065827;28;19959;-67
2022/12/18 04:34:55;;;;;;;;;;;-7.80;99.90;;;;;;5065354;28;20260;-68
2022/12/18 04:37:21;;;;;;;;;;;-7.70;99.90;;;;;;5065031;28;19987;-68
2022/12/18 04:39:48;;;;;;;;;;;-7.60;99.90;;;;;;5065603;28;19948;-68
2022/12/18 04:42:16;;;;;;;;;;;-7.60;99.90;;;;;;5054162;28;20295;-69
2022/12/18 04:44:42;;;;;;;;;;;-7.60;99.90;;;;;;5046765;28;19927;-67
2022/12/18 04:47:09;;;;;;;;;;;-7.60;99.90;;;;;;5064943;28;19955;-68
2022/12/18 04:49:35;;;;;;;;;;;-7.60;99.90;;;;;;5065438;28;19924;-68
2022/12/18 04:52:02;;;;;;;;;;;-7.50;99.90;;;;;;5065470;28;19987;-68
2022/12/18 04:54:29;;;;;;;;;;;-7.60;99.90;;;;;;5065341;28;19948;-69
2022/12/18 04:56:55;;;;;;;;;;;-7.50;99.90;;;;;;5064290;28;20125;-68
2022/12/18 04:59:23;;;;;;;;;;;-7.50;99.90;;;;;;5064902;28;19921;-68
2022/12/18 05:01:50;;;;;;;;;;;-7.50;99.90;;;;;;5064921;28;19988;-68
2022/12/18 05:04:17;;;;;;;;;;;-7.50;99.90;;;;;;5065285;28;19956;-68
2022/12/18 05:06:43;;;;;;;;;;;-7.50;99.90;;;;;;5064407;28;20181;-68
2022/12/18 05:09:10;;;;;;;;;;;-7.50;99.90;;;;;;5064891;28;19959;-68
2022/12/18 05:11:36;;;;;;;;;;;-7.50;99.90;;;;;;5060539;28;19956;-68
2022/12/18 05:14:03;;;;;;;;;;;-7.50;99.90;;;;;;5045138;28;19988;-68
2022/12/18 05:16:31;;;;;;;;;;;-7.50;99.90;;;;;;5044086;28;19988;-68
2022/12/18 05:18:58;;;;;;;;;;;-7.60;99.90;;;;;;5044593;28;20082;-68
2022/12/18 05:21:24;;;;;;;;;;;-7.60;99.90;;;;;;5047905;28;19982;-68
2022/12/18 05:23:51;;;;;;;;;;;-7.60;99.90;;;;;;5064609;28;19952;-68
2022/12/18 05:26:18;;;;;;;;;;;-7.60;99.90;;;;;;5064102;28;19920;-69
2022/12/18 05:28:45;;;;;;;;;;;-7.60;99.90;;;;;;5064822;28;19984;-68
2022/12/18 05:31:12;;;;;;;;;;;-7.50;99.90;;;;;;5064736;28;19920;-69
2022/12/18 05:33:40;;;;;;;;;;;-7.50;99.90;;;;;;5064853;28;19927;-68
2022/12/18 05:36:08;;;;;;;;;;;-7.50;99.90;;;;;;5064064;28;19984;-68
2022/12/18 05:38:35;;;;;;;;;;;-7.50;99.90;;;;;;5063967;28;19921;-68
2022/12/18 05:41:03;;;;;;;;;;;-7.40;99.90;;;;;;5064499;28;19992;-68
2022/12/18 05:43:29;;;;;;;;;;;-7.40;99.90;;;;;;5064547;28;19952;-68
2022/12/18 05:45:57;;;;;;;;;;;-7.40;99.90;;;;;;5063654;28;20179;-68
2022/12/18 05:48:23;;;;;;;;;;;-7.40;99.90;;;;;;5064114;28;20196;-68
2022/12/18 05:50:52;;;;;;;;;;;-7.40;99.90;;;;;;5064073;28;19928;-68
2022/12/18 05:53:19;;;;;;;;;;;-7.30;99.90;;;;;;5064089;28;19952;-67
2022/12/18 05:55:46;;;;;;;;;;;-7.30;99.90;;;;;;5063792;28;19967;-69
2022/12/18 05:58:14;;;;;;;;;;;-7.30;99.90;;;;;;5063504;28;19987;-68
2022/12/18 06:00:43;;;;;;;;;;;-7.30;99.90;;;;;;5061498;28;19974;-67
2022/12/18 06:03:10;;;;;;;;;;;-7.30;99.90;;;;;;5064006;28;20137;-67
2022/12/18 06:05:38;;;;;;;;;;;-7.30;99.90;;;;;;5063972;28;19948;-67
2022/12/18 06:08:06;;;;;;;;;;;-7.30;99.90;;;;;;5063280;28;19963;-67
2022/12/18 06:10:33;;;;;;;;;;;-7.30;99.90;;;;;;5064143;28;19966;-67
2022/12/18 06:13:00;;;;;;;;;;;-7.30;99.90;;;;;;5064094;28;19978;-67
2022/12/18 06:15:26;;;;;;;;;;;-7.30;99.90;;;;;;5063502;28;19987;-67
2022/12/18 06:17:53;;;;;;;;;;;-7.30;99.90;;;;;;5063165;28;19974;-68
2022/12/18 06:20:20;;;;;;;;;;;-7.20;99.90;;;;;;5063951;28;20189;-67
2022/12/18 06:22:46;;;;;;;;;;;-7.20;99.90;;;;;;5063644;28;19987;-68
2022/12/18 06:25:14;;;;;;;;;;;-7.20;99.90;;;;;;5063662;28;19956;-68
2022/12/18 06:27:48;;;;;;;;;;;-7.20;99.90;;;;;;5060179;28;19963;-68
2022/12/18 06:30:14;;;;;;;;;;;-7.20;99.90;;;;;;5063585;28;19980;-68
2022/12/18 06:32:41;;;;;;;;;;;-7.20;99.90;;;;;;5063853;28;19927;-68
2022/12/18 06:35:08;;;;;;;;;;;-7.20;99.90;;;;;;5063461;28;20230;-67
2022/12/18 06:37:35;;;;;;;;;;;-7.10;99.90;;;;;;5062765;28;19993;-67
2022/12/18 06:40:01;;;;;;;;;;;-7.10;99.90;;;;;;5063448;28;19920;-67
2022/12/18 06:42:30;;;;;;;;;;;-7.10;99.90;;;;;;5063746;28;19921;-68
2022/12/18 06:44:57;;;;;;;;;;;-7.10;99.90;;;;;;5063569;28;20174;-68
2022/12/18 06:47:23;;;;;;;;;;;-7.00;99.90;;;;;;5062846;28;19956;-68
2022/12/18 06:49:50;;;;;;;;;;;-7.00;99.90;;;;;;5066841;28;19927;-69
2022/12/18 06:52:17;;;;;;;;;;;-7.00;99.90;;;;;;5067869;28;19956;-68
2022/12/18 06:54:43;;;;;;;;;;;-7.00;99.90;;;;;;5067390;28;20267;-68
2022/12/18 06:57:10;;;;;;;;;;;-6.90;99.90;;;;;;5066910;28;19952;-68
2022/12/18 06:59:38;;;;;;;;;;;-6.90;99.90;;;;;;5067961;28;19963;-68
2022/12/18 07:02:05;;;;;;;;;;;-6.90;99.90;;;;;;5059390;28;19921;-68
2022/12/18 07:04:32;;;;;;;;;;;-6.90;99.90;;;;;;5067220;28;19925;-68
2022/12/18 07:06:58;;;;;;;;;;;-6.80;99.90;;;;;;5066522;28;19927;-69
2022/12/18 07:09:25;;;;;;;;;;;-6.80;99.90;;;;;;5067126;28;19956;-68
2022/12/18 07:11:52;;;;;;;;;;;-6.80;99.90;;;;;;5067270;28;19992;-68
2022/12/18 07:14:18;;;;;;;;;;;-6.80;99.90;;;;;;5067303;28;19952;-67
2022/12/18 07:16:47;;;;;;;;;;;-6.70;99.90;;;;;;5066280;28;19975;-68
2022/12/18 07:19:14;;;;;;;;;;;-6.70;99.90;;;;;;5066784;28;20208;-68
2022/12/18 07:21:40;;;;;;;;;;;-6.60;99.90;;;;;;5067032;28;19921;-67
2022/12/18 07:24:07;;;;;;;;;;;-6.60;99.90;;;;;;5067024;28;19928;-67
2022/12/18 07:26:52;;;;;;;;;;;-6.70;99.90;;;;;;5063327;28;20129;-67
2022/12/18 07:29:19;;;;;;;;;;;-6.70;99.90;;;;;;5066653;28;19952;-69
2022/12/18 07:31:47;;;;;;;;;;;-6.60;99.90;;;;;;5057135;28;19964;-68
2022/12/18 07:34:14;;;;;;;;;;;-6.60;99.90;;;;;;5047032;28;20112;-67
2022/12/18 07:36:41;;;;;;;;;;;-6.50;99.90;;;;;;5046188;28;19928;-68
2022/12/18 07:39:07;;;;;;;;;;;-6.50;99.90;;;;;;5046503;28;19968;-69
2022/12/18 07:41:34;;;;;;;;;;;-6.40;99.90;;;;;;5046505;28;19941;-67
2022/12/18 07:44:01;;;;;;;;;;;-6.40;99.90;;;;;;5054420;28;19920;-67
2022/12/18 07:46:27;;;;;;;;;;;-6.40;99.90;;;;;;5065737;28;20181;-69
2022/12/18 07:48:55;;;;;;;;;;;-6.30;99.90;;;;;;5066504;28;19952;-68
2022/12/18 07:51:22;;;;;;;;;;;-6.30;99.90;;;;;;5066565;28;19921;-68
2022/12/18 07:53:49;;;;;;;;;;;-6.30;99.90;;;;;;5066592;28;19952;-68
2022/12/18 07:56:15;;;;;;;;;;;-6.30;99.90;;;;;;5065873;28;20172;-68
2022/12/18 07:58:44;;;;;;;;;;;-6.20;99.90;;;;;;5066622;28;19983;-68
2022/12/18 08:01:14;;;;;;;;;;;-6.20;99.90;;;;;;5066041;28;19967;-68
2022/12/18 08:03:41;;;;;;;;;;;-6.10;99.90;;;;;;5067153;28;19927;-68
2022/12/18 08:06:10;;;;;;;;;;;-6.10;99.90;;;;;;5057216;28;19960;-68
2022/12/18 08:08:37;;;;;;;;;;;-6.00;99.90;;;;;;5059604;28;19959;-68
2022/12/18 08:11:04;;;;;;;;;;;-6.00;99.90;;;;;;5066182;28;19921;-69
2022/12/18 08:13:31;;;;;;;;;;;-6.00;99.90;;;;;;5066106;28;20115;-70
2022/12/18 08:15:58;;;;;;;;;;;-5.90;99.90;;;;;;5065641;28;19952;-68
2022/12/18 08:18:25;;;;;;;;;;;-5.90;99.90;;;;;;5065690;28;20113;-70
2022/12/18 08:20:52;;;;;;;;;;;-5.80;99.90;;;;;;5066230;28;20208;-68
2022/12/18 08:23:26;;;;;;;;;;;-5.80;99.90;;;;;;5063397;28;20254;-69
2022/12/18 08:25:53;;;;;;;;;;;-5.80;99.90;;;;;;5045820;28;20119;-69
2022/12/18 08:28:20;;;;;;;;;;;-5.70;99.90;;;;;;5045246;28;19952;-68
2022/12/18 08:30:47;;;;;;;;;;;-5.70;99.90;;;;;;5057400;28;19952;-68
2022/12/18 08:33:13;;;;;;;;;;;-5.60;99.90;;;;;;5065736;28;19963;-69
2022/12/18 08:35:40;;;;;;;;;;;-5.60;99.90;;;;;;5065472;28;19920;-69
2022/12/18 08:38:07;;;;;;;;;;;-5.50;99.90;;;;;;5065319;28;19921;-69
2022/12/18 08:40:35;;;;;;;;;;;-5.50;99.90;;;;;;5065622;28;19980;-69
2022/12/18 08:45:46;;;;;;;;;;;-5.40;99.90;;;;;;5064860;28;19992;-69
2022/12/18 08:48:12;;;;;;;;;;;-5.40;99.90;;;;;;5063573;28;19933;-69
2022/12/18 08:50:39;;;;;;;;;;;-5.30;99.90;;;;;;5064355;28;20220;-68
2022/12/18 08:53:06;;;;;;;;;;;-5.30;99.90;;;;;;5065495;28;20228;-68
2022/12/18 08:55:32;;;;;;;;;;;-5.20;99.90;;;;;;5065215;28;20004;-68
2022/12/18 08:58:00;;;;;;;;;;;-5.20;99.90;;;;;;5063137;28;19983;-68
2022/12/18 09:00:27;;;;;;;;;;;-5.20;99.90;;;;;;5065160;28;19956;-68
2022/12/18 09:02:54;;;;;;;;;;;-5.10;99.90;;;;;;5064679;28;20224;-70
2022/12/18 09:05:20;;;;;;;;;;;-5.00;99.90;;;;;;5053293;28;20217;-67
2022/12/18 09:07:47;;;;;;;;;;;-4.90;99.90;;;;;;5063778;28;19944;-68
2022/12/18 09:10:14;;;;;;;;;;;-4.90;99.90;;;;;;5064992;28;19960;-68
2022/12/18 09:12:55;;;;;;;;;;;-4.90;99.90;;;;;;5062379;28;19984;-68
2022/12/18 09:15:24;;;;;;;;;;;-4.90;99.90;;;;;;5057341;28;19974;-69
2022/12/18 09:17:52;;;;;;;;;;;-4.80;99.90;;;;;;5060815;28;20156;-69
2022/12/18 09:20:19;;;;;;;;;;;-4.80;99.90;;;;;;5063389;28;19928;-68
2022/12/18 09:22:45;;;;;;;;;;;-4.70;99.90;;;;;;5064174;28;19960;-68
2022/12/18 09:25:12;;;;;;;;;;;-4.70;99.90;;;;;;5064066;28;19929;-69
2022/12/18 09:27:39;;;;;;;;;;;-4.70;99.90;;;;;;5063697;28;20165;-68
2022/12/18 09:30:06;;;;;;;;;;;-4.70;99.90;;;;;;5064662;28;19921;-68
2022/12/18 09:32:34;;;;;;;;;;;-4.60;99.90;;;;;;5063292;28;20116;-68
2022/12/18 09:35:01;;;;;;;;;;;-4.60;99.90;;;;;;5064265;28;20156;-68
2022/12/18 09:37:28;;;;;;;;;;;-4.60;99.90;;;;;;5063586;28;19943;-68
2022/12/18 09:39:54;;;;;;;;;;;-4.50;99.90;;;;;;5063692;28;19921;-68
2022/12/18 09:42:22;;;;;;;;;;;-4.50;99.90;;;;;;5064238;28;20116;-68
2022/12/18 09:44:50;;;;;;;;;;;-4.50;99.90;;;;;;5062033;28;19924;-68
2022/12/18 09:47:19;;;;;;;;;;;-4.40;99.90;;;;;;5044157;28;19928;-70
2022/12/18 09:49:49;;;;;;;;;;;-4.40;99.90;;;;;;5062615;28;19960;-69
2022/12/18 09:52:18;;;;;;;;;;;-4.40;99.90;;;;;;5052156;28;19921;-69
2022/12/18 09:54:47;;;;;;;;;;;-4.30;99.90;;;;;;5064226;28;19921;-70
2022/12/18 09:57:15;;;;;;;;;;;-4.30;99.90;;;;;;5063303;28;19921;-69
2022/12/18 09:59:43;;;;;;;;;;;-4.20;99.90;;;;;;5063884;28;19921;-70
2022/12/18 10:02:17;;;;;;;;;;;-4.20;99.90;;;;;;5063710;28;20235;-70
2022/12/18 10:04:43;;;;;;;;;;;-4.20;99.90;;;;;;5064313;28;19984;-69
2022/12/18 10:07:16;;;;;;;;;;;-4.10;99.90;;;;;;5061491;28;19928;-69
2022/12/18 10:09:46;;;;;;;;;;;-4.10;99.90;;;;;;5064017;28;19988;-68
2022/12/18 10:12:18;;;;;;;;;;;-4.00;99.90;;;;;;5064305;28;19929;-69
2022/12/18 10:14:48;;;;;;;;;;;-4.00;99.90;;;;;;5063793;28;19963;-69
2022/12/18 10:17:21;;;;;;;;;;;-4.00;99.90;;;;;;5063577;28;19928;-69
2022/12/18 10:19:50;;;;;;;;;;;-3.90;99.90;;;;;;5062781;28;19979;-69
2022/12/18 10:22:23;;;;;;;;;;;-3.90;99.90;;;;;;5063350;28;19959;-69
2022/12/18 10:24:54;;;;;;;;;;;-3.80;99.90;;;;;;5062272;28;19966;-68
2022/12/18 10:27:23;;;;;;;;;;;-3.80;99.90;;;;;;5063014;28;19966;-70
2022/12/18 10:29:50;;;;;;;;;;;-3.60;99.90;;;;;;5062648;28;19933;-68
2022/12/18 10:32:18;;;;;;;;;;;-3.60;99.90;;;;;;5064058;28;19921;-69
2022/12/18 10:34:49;;;;;;;;;;;-3.60;99.90;;;;;;5061604;28;20144;-70
2022/12/18 10:37:18;;;;;;;;;;;-3.60;99.90;;;;;;5063863;28;19963;-69
2022/12/18 10:39:46;;;;;;;;;;;-3.50;99.90;;;;;;5063921;28;19959;-69
2022/12/18 10:42:17;;;;;;;;;;;-3.40;99.90;;;;;;5063204;28;19921;-70
2022/12/18 10:44:44;;;;;;;;;;;-3.50;99.90;;;;;;5063280;28;19921;-69
2022/12/18 10:47:13;;;;;;;;;;;-3.50;99.90;;;;;;5062545;28;19931;-70
2022/12/18 10:49:42;;;;;;;;;;;-3.50;99.90;;;;;;5056096;28;19929;-69
2022/12/18 10:52:14;;;;;;;;;;;-3.50;99.90;;;;;;5058489;28;19921;-69
2022/12/18 10:54:47;;;;;;;;;;;-3.50;99.90;;;;;;5056482;28;19984;-69
2022/12/18 10:57:30;;;;;;;;;;;-3.50;99.90;;;;;;5062873;28;19944;-69
2022/12/18 10:59:57;;;;;;;;;;;-3.40;99.90;;;;;;5062844;28;20254;-69
2022/12/18 11:02:28;;;;;;;;;;;-3.40;99.90;;;;;;5063666;28;19956;-69
2022/12/18 11:04:55;;;;;;;;;;;-3.30;99.90;;;;;;5063061;28;19935;-69
2022/12/18 11:07:21;;;;;;;;;;;-3.10;99.90;;;;;;5062346;28;19921;-70
2022/12/18 11:10:00;;;;;;;;;;;-3.00;99.90;;;;;;5062715;28;19955;-69
2022/12/18 11:12:29;;;;;;;;;;;-2.70;99.90;;;;;;5063137;28;19983;-68
2022/12/18 11:14:57;;;;;;;;;;;-2.60;99.90;;;;;;5063421;28;20099;-70
2022/12/18 11:17:28;;;;;;;;;;;-2.60;99.90;;;;;;5059111;28;20404;-70
2022/12/18 11:19:55;;;;;;;;;;;-2.50;99.90;;;;;;5063357;28;19949;-69
2022/12/18 11:22:24;;;;;;;;;;;-2.60;99.90;;;;;;5049706;28;19959;-69
2022/12/18 11:24:55;;;;;;;;;;;-2.60;99.90;;;;;;5062907;28;20216;-70
2022/12/18 11:27:22;;;;;;;;;;;-2.60;99.90;;;;;;5058967;28;20119;-70
2022/12/18 11:29:53;;;;;;;;;;;-2.70;99.90;;;;;;5053557;28;19959;-69
2022/12/18 11:32:33;;;;;;;;;;;-2.70;99.90;;;;;;5058962;28;20342;-68
2022/12/18 11:35:03;;;;;;;;;;;-2.60;99.90;;;;;;5054153;28;19980;-69
2022/12/18 11:37:30;;;;;;;;;;;-2.50;99.90;;;;;;5066040;28;19921;-69
2022/12/18 11:39:59;;;;;;;;;;;-2.30;99.90;;;;;;5066273;28;20031;-71
2022/12/18 11:42:28;;;;;;;;;;;-2.40;99.90;;;;;;5066875;28;19963;-69
2022/12/18 11:44:59;;;;;;;;;;;-2.40;99.90;;;;;;5066589;28;19960;-69
2022/12/18 11:47:30;;;;;;;;;;;-2.40;99.90;;;;;;5046304;28;19956;-68
2022/12/18 11:50:00;;;;;;;;;;;-2.50;99.90;;;;;;5066644;28;20208;-69
2022/12/18 11:52:28;;;;;;;;;;;-2.60;99.90;;;;;;5057478;28;20223;-69
2022/12/18 11:54:56;;;;;;;;;;;-2.70;99.90;;;;;;5057648;28;19952;-71
2022/12/18 11:57:30;;;;;;;;;;;-2.70;99.90;;;;;;5065419;28;19921;-69
2022/12/18 12:00:01;;;;;;;;;;;-2.60;99.90;;;;;;5066280;28;19963;-69
2022/12/18 12:02:37;;;;;;;;;;;-2.60;99.90;;;;;;5063693;28;19921;-69
2022/12/18 12:05:19;;;;;;;;;;;-2.60;99.90;;;;;;5066187;28;20152;-70
2022/12/18 12:07:48;;;;;;;;;;;-2.70;99.90;;;;;;5065413;28;19921;-69
2022/12/18 12:10:24;;;;;;;;;;;-2.70;99.90;;;;;;5065880;28;19968;-71
2022/12/18 12:12:58;;;;;;;;;;;-2.70;99.90;;;;;;5066175;28;19979;-70
2022/12/18 12:15:30;;;;;;;;;;;-2.60;99.90;;;;;;5065925;28;20052;-69
2022/12/18 12:18:00;;;;;;;;;;;-2.50;99.90;;;;;;5065280;28;19924;-69
2022/12/18 12:20:32;;;;;;;;;;;-2.40;99.90;;;;;;5065958;28;19956;-70
2022/12/18 12:23:01;;;;;;;;;;;-2.30;99.90;;;;;;5065786;28;19971;-70
2022/12/18 12:25:32;;;;;;;;;;;-2.10;99.90;;;;;;5065920;28;19952;-70
2022/12/18 12:28:06;;;;;;;;;;;-2.10;99.90;;;;;;5057786;28;20124;-69
2022/12/18 12:30:39;;;;;;;;;;;-2.10;99.90;;;;;;5062071;28;19921;-69
2022/12/18 12:33:13;;;;;;;;;;;-2.10;99.90;;;;;;5064913;28;19920;-70
2022/12/18 12:35:45;;;;;;;;;;;-2.10;99.90;;;;;;5064053;28;19976;-69
2022/12/18 12:38:14;;;;;;;;;;;-2.10;99.90;;;;;;5065273;28;19932;-69
2022/12/18 12:40:44;;;;;;;;;;;-2.10;99.90;;;;;;5065528;28;19943;-69
2022/12/18 12:43:22;;;;;;;;;;;-2.10;99.90;;;;;;5065256;28;20000;-74
2022/12/18 12:45:53;;;;;;;;;;;-2.00;99.90;;;;;;5064546;28;19921;-70
2022/12/18 12:48:25;;;;;;;;;;;-1.90;99.90;;;;;;5065213;28;19984;-69
2022/12/18 12:50:59;;;;;;;;;;;-1.80;99.90;;;;;;5057954;28;19988;-71
2022/12/18 12:53:30;;;;;;;;;;;-1.70;99.90;;;;;;5045642;28;19963;-69
2022/12/18 12:55:57;;;;;;;;;;;-1.70;99.90;;;;;;5045252;28;19964;-69
2022/12/18 12:58:27;;;;;;;;;;;-1.80;99.90;;;;;;5063617;28;19921;-70
2022/12/18 13:00:58;;;;;;;;;;;-1.90;99.90;;;;;;5065390;28;19928;-69
2022/12/18 13:03:32;;;;;;;;;;;-2.00;99.90;;;;;;5065437;28;19920;-69
2022/12/18 13:06:01;;;;;;;;;;;-2.00;99.90;;;;;;5065148;28;19964;-69
2022/12/18 13:08:29;;;;;;;;;;;-2.00;99.90;;;;;;5065032;28;19952;-69
2022/12/18 13:12:55;;;;;;;;;;;-2.10;99.90;;;;;;5065353;28;19920;-69
2022/12/18 13:13:50;;;;;;;;;;;-2.20;99.90;;;;;;5061480;28;20273;-70
2022/12/18 13:16:20;;;;;;;;;;;-2.30;99.90;;;;;;5062893;28;19916;-68
2022/12/18 13:18:51;;;;;;;;;;;-2.30;99.90;;;;;;5064901;28;19943;-70
2022/12/18 13:21:21;;;;;;;;;;;-2.40;99.90;;;;;;5065443;28;19979;-70
2022/12/18 13:23:48;;;;;;;;;;;-2.40;99.90;;;;;;5057837;28;19927;-69
2022/12/18 13:26:39;;;;;;;;;;;-2.40;99.90;;;;;;5060809;28;19948;-69
2022/12/18 13:29:06;;;;;;;;;;;-2.50;99.90;;;;;;5048757;28;20047;-73
2022/12/18 13:31:51;;;;;;;;;;;-2.50;99.90;;;;;;5065042;28;19984;-70
2022/12/18 13:34:20;;;;;;;;;;;-2.50;99.90;;;;;;5063464;28;19921;-69
2022/12/18 13:36:47;;;;;;;;;;;-2.50;99.90;;;;;;5064136;28;19921;-69
2022/12/18 13:39:24;;;;;;;;;;;-2.50;99.90;;;;;;5064334;28;19956;-69
2022/12/18 13:41:52;;;;;;;;;;;-2.50;99.90;;;;;;5065202;28;19921;-69
2022/12/18 13:44:26;;;;;;;;;;;-2.60;99.90;;;;;;5064268;28;19920;-70
2022/12/18 13:46:53;;;;;;;;;;;-2.50;99.90;;;;;;5063990;28;19921;-69
2022/12/18 13:49:23;;;;;;;;;;;-2.60;99.90;;;;;;5046908;28;19928;-69
2022/12/18 13:51:51;;;;;;;;;;;-2.60;99.90;;;;;;5062185;28;19980;-69
2022/12/18 13:54:19;;;;;;;;;;;-2.60;99.90;;;;;;5064359;28;20048;-69
2022/12/18 13:56:53;;;;;;;;;;;-2.60;99.90;;;;;;5061025;28;19992;-69
2022/12/18 13:59:21;;;;;;;;;;;-2.60;99.90;;;;;;5063913;28;19921;-69
2022/12/18 14:01:49;;;;;;;;;;;-2.60;99.90;;;;;;5064197;28;19921;-69
2022/12/18 14:04:21;;;;;;;;;;;-2.70;99.90;;;;;;5064230;28;20263;-69
2022/12/18 14:06:50;;;;;;;;;;;-2.70;99.90;;;;;;5063589;28;19953;-68
2022/12/18 14:09:18;;;;;;;;;;;-2.80;99.90;;;;;;5059636;28;19921;-69
2022/12/18 14:11:48;;;;;;;;;;;-2.80;99.90;;;;;;5053302;28;19921;-69
2022/12/18 14:14:14;;;;;;;;;;;-2.90;99.90;;;;;;5061350;28;19980;-68
2022/12/18 14:16:41;;;;;;;;;;;-2.90;99.90;;;;;;5063677;28;20256;-69
2022/12/18 14:19:13;;;;;;;;;;;-2.90;99.90;;;;;;5064454;28;22199;-68
2022/12/18 14:21:39;;;;;;;;;;;-2.90;99.90;;;;;;5044082;28;19988;-68
2022/12/18 14:24:14;;;;;;;;;;;-3.00;99.90;;;;;;5056564;28;19995;-69
2022/12/18 14:26:41;;;;;;;;;;;-3.10;99.90;;;;;;5063587;28;19921;-68
2022/12/18 14:29:22;;;;;;;;;;;-3.10;99.90;;;;;;5064188;28;19961;-70
2022/12/18 14:32:03;;;;;;;;;;;-3.10;99.90;;;;;;5063857;28;20276;-69